Time;durP1;ratioP1;P1;durP2;ratioP2;P2;SDS_P1;SDS_P2;PMS_P1;PMS_P2;Temp;Humidity;BMP_temperature;BMP_pressure;BME280_temperature;BME280_humidity;BME280_pressure;Samples;Min_cycle;Max_cycle;Signal;HPM_P1;HPM_P2
2021/09/25 00:01:02;;;;;;;;;;;17.20;97.50;;;;;;5027578;28;20425;-63
2021/09/25 00:03:28;;;;;;;;;;;17.20;97.50;;;;;;5028480;28;19960;-61
2021/09/25 00:05:53;;;;;;;;;;;17.20;97.50;;;;;;5027901;28;19979;-61
2021/09/25 00:08:19;;;;;;;;;;;17.20;97.50;;;;;;5028603;28;19913;-63
2021/09/25 00:10:44;;;;;;;;;;;17.10;97.50;;;;;;5027144;28;19909;-62
2021/09/25 00:13:10;;;;;;;;;;;17.10;97.50;;;;;;5028561;28;19909;-62
2021/09/25 00:15:35;;;;;;;;;;;17.10;97.50;;;;;;5028046;28;19912;-63
2021/09/25 00:18:04;;;;;;;;;;;17.10;97.60;;;;;;5028337;28;20008;-63
2021/09/25 00:20:30;;;;;;;;;;;17.10;97.60;;;;;;5027670;28;19917;-63
2021/09/25 00:22:56;;;;;;;;;;;17.10;97.70;;;;;;5027327;28;19915;-61
2021/09/25 00:25:21;;;;;;;;;;;17.10;97.70;;;;;;5027435;28;19917;-61
2021/09/25 00:27:47;;;;;;;;;;;17.10;97.70;;;;;;5024494;28;20412;-61
2021/09/25 00:30:13;;;;;;;;;;;17.10;97.70;;;;;;5021826;28;19906;-63
2021/09/25 00:32:39;;;;;;;;;;;17.10;97.80;;;;;;5027224;28;20020;-62
2021/09/25 00:35:05;;;;;;;;;;;17.10;97.80;;;;;;5028143;28;20431;-63
2021/09/25 00:37:30;;;;;;;;;;;17.00;97.80;;;;;;5026222;28;19931;-63
2021/09/25 00:39:56;;;;;;;;;;;17.00;97.80;;;;;;5021886;28;20372;-62
2021/09/25 00:42:21;;;;;;;;;;;17.00;97.80;;;;;;5027383;28;19909;-62
2021/09/25 00:44:47;;;;;;;;;;;17.00;97.90;;;;;;5027829;28;20330;-63
2021/09/25 00:47:12;;;;;;;;;;;17.00;97.90;;;;;;5027311;28;20011;-62
2021/09/25 00:49:38;;;;;;;;;;;17.00;97.90;;;;;;5027425;28;20015;-63
2021/09/25 00:52:04;;;;;;;;;;;17.00;97.90;;;;;;5027296;28;19905;-63
2021/09/25 00:54:29;;;;;;;;;;;17.00;97.90;;;;;;5027760;28;19916;-63
2021/09/25 00:56:56;;;;;;;;;;;17.00;97.90;;;;;;5026871;28;19913;-63
2021/09/25 00:59:21;;;;;;;;;;;17.00;97.90;;;;;;5027989;28;19967;-62
2021/09/25 01:01:47;;;;;;;;;;;17.00;98.10;;;;;;5025697;28;20305;-61
2021/09/25 01:04:13;;;;;;;;;;;17.00;98.00;;;;;;5027805;28;19917;-60
2021/09/25 01:06:39;;;;;;;;;;;17.00;98.00;;;;;;5027367;28;19905;-62
2021/09/25 01:09:04;;;;;;;;;;;16.90;98.00;;;;;;5027868;28;19950;-61
2021/09/25 01:11:30;;;;;;;;;;;16.90;98.00;;;;;;5026176;28;19956;-62
2021/09/25 01:13:56;;;;;;;;;;;16.90;98.10;;;;;;5027420;28;20019;-61
2021/09/25 01:16:21;;;;;;;;;;;16.80;98.10;;;;;;5027521;28;20008;-62
2021/09/25 01:18:47;;;;;;;;;;;16.80;98.10;;;;;;5026440;28;19974;-62
2021/09/25 01:21:13;;;;;;;;;;;16.80;98.20;;;;;;5026430;28;19917;-61
2021/09/25 01:23:38;;;;;;;;;;;16.80;98.20;;;;;;5026862;28;19912;-62
2021/09/25 01:26:04;;;;;;;;;;;16.80;98.20;;;;;;5026827;28;19948;-62
2021/09/25 01:28:31;;;;;;;;;;;16.80;98.20;;;;;;5026862;28;20283;-63
2021/09/25 01:30:57;;;;;;;;;;;16.80;98.30;;;;;;5027341;28;19916;-62
2021/09/25 01:33:27;;;;;;;;;;;16.80;98.30;;;;;;5026719;28;19905;-62
2021/09/25 01:35:52;;;;;;;;;;;16.80;98.30;;;;;;5026902;28;20252;-62
2021/09/25 01:38:18;;;;;;;;;;;16.80;98.40;;;;;;5026019;28;19970;-64
2021/09/25 01:40:43;;;;;;;;;;;16.80;98.40;;;;;;5025632;28;19909;-62
2021/09/25 01:43:08;;;;;;;;;;;16.80;98.50;;;;;;5026131;28;20312;-63
2021/09/25 01:45:34;;;;;;;;;;;16.80;98.50;;;;;;5026990;28;19916;-63
2021/09/25 01:47:59;;;;;;;;;;;16.80;98.50;;;;;;5027193;28;19958;-61
2021/09/25 01:50:25;;;;;;;;;;;16.70;98.50;;;;;;5027104;28;19905;-62
2021/09/25 01:52:50;;;;;;;;;;;16.70;98.60;;;;;;5025683;28;19920;-62
2021/09/25 01:55:16;;;;;;;;;;;16.70;98.60;;;;;;5026687;28;20389;-61
2021/09/25 01:57:41;;;;;;;;;;;16.70;98.60;;;;;;5026774;28;20330;-62
2021/09/25 02:00:08;;;;;;;;;;;16.70;98.60;;;;;;5025851;28;19992;-64
2021/09/25 02:02:34;;;;;;;;;;;16.70;98.60;;;;;;5021252;28;19919;-61
2021/09/25 02:04:59;;;;;;;;;;;16.70;98.70;;;;;;5027625;28;20299;-63
2021/09/25 02:07:25;;;;;;;;;;;16.70;98.70;;;;;;5026980;28;19909;-62
2021/09/25 02:09:50;;;;;;;;;;;16.70;98.70;;;;;;5018960;28;19909;-61
2021/09/25 02:12:16;;;;;;;;;;;16.70;98.70;;;;;;5012635;28;19913;-61
2021/09/25 02:14:42;;;;;;;;;;;16.70;98.70;;;;;;5041254;28;20345;-61
2021/09/25 02:17:07;;;;;;;;;;;16.70;98.70;;;;;;5025102;28;20393;-62
2021/09/25 02:19:33;;;;;;;;;;;16.70;98.70;;;;;;5025413;28;20386;-61
2021/09/25 02:21:58;;;;;;;;;;;16.70;98.80;;;;;;5025642;28;20004;-62
2021/09/25 02:24:24;;;;;;;;;;;16.70;98.70;;;;;;5025356;28;19963;-61
2021/09/25 02:26:49;;;;;;;;;;;16.70;98.80;;;;;;5023777;28;19909;-61
2021/09/25 02:29:15;;;;;;;;;;;16.70;98.80;;;;;;5025040;28;20316;-61
2021/09/25 02:31:40;;;;;;;;;;;16.60;98.80;;;;;;5024555;28;19939;-63
2021/09/25 02:34:06;;;;;;;;;;;16.70;98.80;;;;;;5025367;28;19996;-63
2021/09/25 02:36:32;;;;;;;;;;;16.70;98.80;;;;;;5006288;28;19905;-63
2021/09/25 02:38:58;;;;;;;;;;;16.70;98.90;;;;;;5015909;28;20279;-61
2021/09/25 02:41:24;;;;;;;;;;;16.60;98.90;;;;;;5025636;28;19909;-61
2021/09/25 02:43:49;;;;;;;;;;;16.60;99.00;;;;;;5020569;28;20699;-62
2021/09/25 02:46:15;;;;;;;;;;;16.60;98.90;;;;;;5026260;28;19947;-61
2021/09/25 02:48:40;;;;;;;;;;;16.60;99.00;;;;;;5024826;28;20382;-63
2021/09/25 02:51:06;;;;;;;;;;;16.60;99.00;;;;;;5023521;28;20362;-63
2021/09/25 02:53:31;;;;;;;;;;;16.60;99.00;;;;;;5040319;28;19921;-62
2021/09/25 02:55:57;;;;;;;;;;;16.60;99.00;;;;;;5029687;28;19983;-60
2021/09/25 02:58:22;;;;;;;;;;;16.60;99.20;;;;;;5026976;28;19962;-62
2021/09/25 03:00:48;;;;;;;;;;;16.60;99.20;;;;;;5028226;28;19999;-62
2021/09/25 03:03:13;;;;;;;;;;;16.50;99.10;;;;;;5029128;28;20382;-61
2021/09/25 03:05:39;;;;;;;;;;;16.50;99.20;;;;;;5027327;28;19909;-62
2021/09/25 03:08:04;;;;;;;;;;;16.50;99.20;;;;;;5029605;28;19909;-61
2021/09/25 03:10:30;;;;;;;;;;;16.50;99.20;;;;;;5029012;28;20568;-61
2021/09/25 03:12:55;;;;;;;;;;;16.50;99.30;;;;;;5028284;28;19920;-61
2021/09/25 03:15:21;;;;;;;;;;;16.50;99.30;;;;;;5028639;28;19909;-63
2021/09/25 03:17:46;;;;;;;;;;;16.50;99.30;;;;;;5028369;28;19909;-61
2021/09/25 03:20:12;;;;;;;;;;;16.50;99.30;;;;;;5028325;28;19913;-61
2021/09/25 03:22:38;;;;;;;;;;;16.50;99.30;;;;;;5019863;28;19909;-61
2021/09/25 03:25:07;;;;;;;;;;;16.50;99.30;;;;;;5025509;28;19912;-62
2021/09/25 03:27:34;;;;;;;;;;;16.50;99.40;;;;;;5028997;28;20105;-61
2021/09/25 03:29:59;;;;;;;;;;;16.50;99.30;;;;;;5027784;28;19908;-63
2021/09/25 03:32:24;;;;;;;;;;;16.50;99.30;;;;;;5028300;28;19909;-61
2021/09/25 03:34:50;;;;;;;;;;;16.50;99.30;;;;;;5042990;28;21166;-62
2021/09/25 03:37:15;;;;;;;;;;;16.50;99.30;;;;;;5028885;28;19979;-62
2021/09/25 03:39:41;;;;;;;;;;;16.50;99.40;;;;;;5014847;28;20003;-61
2021/09/25 03:42:06;;;;;;;;;;;16.50;99.50;;;;;;5028538;28;20318;-61
2021/09/25 03:44:32;;;;;;;;;;;16.50;99.60;;;;;;5028318;28;20235;-62
2021/09/25 03:46:58;;;;;;;;;;;16.50;99.60;;;;;;5029104;28;19908;-60
2021/09/25 03:49:23;;;;;;;;;;;16.50;99.70;;;;;;5027749;28;19984;-63
2021/09/25 03:51:49;;;;;;;;;;;16.50;99.80;;;;;;5026196;28;19913;-61
2021/09/25 03:54:15;;;;;;;;;;;16.40;99.80;;;;;;5022865;28;19916;-60
2021/09/25 03:56:40;;;;;;;;;;;16.50;99.90;;;;;;5028880;28;19913;-62
2021/09/25 03:59:05;;;;;;;;;;;16.40;99.90;;;;;;5028631;28;19909;-61
2021/09/25 04:01:31;;;;;;;;;;;16.40;99.90;;;;;;5022984;28;20356;-61
2021/09/25 04:03:56;;;;;;;;;;;16.40;99.90;;;;;;5011021;28;19905;-62
2021/09/25 04:06:25;;;;;;;;;;;16.40;99.90;;;;;;5026990;28;20383;-61
2021/09/25 04:08:50;;;;;;;;;;;16.40;99.90;;;;;;5027891;28;19947;-62
2021/09/25 04:11:16;;;;;;;;;;;16.40;99.90;;;;;;5027203;28;19948;-62
2021/09/25 04:13:41;;;;;;;;;;;16.40;99.90;;;;;;5027753;28;19941;-60
2021/09/25 04:16:06;;;;;;;;;;;16.40;99.90;;;;;;5027876;28;19928;-62
2021/09/25 04:18:32;;;;;;;;;;;16.40;99.90;;;;;;5027677;28;19920;-63
2021/09/25 04:20:57;;;;;;;;;;;16.40;99.90;;;;;;5026123;28;19959;-61
2021/09/25 04:23:23;;;;;;;;;;;16.40;99.90;;;;;;5027618;28;19913;-62
2021/09/25 04:25:48;;;;;;;;;;;16.40;99.90;;;;;;5027374;28;19909;-63
2021/09/25 04:28:14;;;;;;;;;;;16.40;99.90;;;;;;5028173;28;19951;-62
2021/09/25 04:30:40;;;;;;;;;;;16.40;99.90;;;;;;5027689;28;19975;-62
2021/09/25 04:33:06;;;;;;;;;;;16.40;99.90;;;;;;5026908;28;19991;-61
2021/09/25 04:35:32;;;;;;;;;;;16.40;99.90;;;;;;5019545;28;19916;-61
2021/09/25 04:37:57;;;;;;;;;;;16.40;99.90;;;;;;5027654;28;19913;-62
2021/09/25 04:40:23;;;;;;;;;;;16.40;99.90;;;;;;5027574;28;20355;-61
2021/09/25 04:42:49;;;;;;;;;;;16.50;99.90;;;;;;5022409;28;19996;-62
2021/09/25 04:45:14;;;;;;;;;;;16.50;99.90;;;;;;5010325;28;20012;-62
2021/09/25 04:47:40;;;;;;;;;;;16.50;99.90;;;;;;5027909;28;19920;-62
2021/09/25 04:50:06;;;;;;;;;;;16.50;99.90;;;;;;5026555;28;19905;-62
2021/09/25 04:52:32;;;;;;;;;;;16.50;99.90;;;;;;5026723;28;19920;-62
2021/09/25 04:54:57;;;;;;;;;;;16.50;99.90;;;;;;5026978;28;19905;-63
2021/09/25 04:57:22;;;;;;;;;;;16.50;99.90;;;;;;5027504;28;20376;-62
2021/09/25 04:59:48;;;;;;;;;;;16.50;99.90;;;;;;5027342;28;20260;-62
2021/09/25 05:02:13;;;;;;;;;;;16.50;99.90;;;;;;5027283;28;20283;-62
2021/09/25 05:04:39;;;;;;;;;;;16.50;99.80;;;;;;5026793;28;19970;-62
2021/09/25 05:07:04;;;;;;;;;;;16.50;99.80;;;;;;5027892;28;19909;-61
2021/09/25 05:09:30;;;;;;;;;;;16.50;99.90;;;;;;5028144;28;20023;-62
2021/09/25 05:11:55;;;;;;;;;;;16.60;99.80;;;;;;5027269;28;20356;-62
2021/09/25 05:14:20;;;;;;;;;;;16.60;99.80;;;;;;5027311;28;19908;-61
2021/09/25 05:16:46;;;;;;;;;;;16.60;99.80;;;;;;5026525;28;19905;-62
2021/09/25 05:19:11;;;;;;;;;;;16.60;99.70;;;;;;5026738;28;19913;-62
2021/09/25 05:21:37;;;;;;;;;;;16.60;99.70;;;;;;5027073;28;19968;-62
2021/09/25 05:24:03;;;;;;;;;;;16.60;99.70;;;;;;5027353;28;20264;-63
2021/09/25 05:26:29;;;;;;;;;;;16.60;99.70;;;;;;5027411;28;20302;-63
2021/09/25 05:28:54;;;;;;;;;;;16.60;99.70;;;;;;5027441;28;19935;-62
2021/09/25 05:31:20;;;;;;;;;;;16.60;99.60;;;;;;5022563;28;19924;-62
2021/09/25 05:33:45;;;;;;;;;;;16.60;99.60;;;;;;5017406;28;19917;-62
2021/09/25 05:36:10;;;;;;;;;;;16.60;99.60;;;;;;5027034;28;20079;-62
2021/09/25 05:38:36;;;;;;;;;;;16.60;99.60;;;;;;5027252;28;19913;-63
2021/09/25 05:41:01;;;;;;;;;;;16.60;99.60;;;;;;5026411;28;19912;-61
2021/09/25 05:43:27;;;;;;;;;;;16.60;99.60;;;;;;5027975;28;20344;-62
2021/09/25 05:45:52;;;;;;;;;;;16.60;99.60;;;;;;5027518;28;19909;-61
2021/09/25 05:48:17;;;;;;;;;;;16.60;99.60;;;;;;5027624;28;19909;-61
2021/09/25 05:50:43;;;;;;;;;;;16.60;99.50;;;;;;5027517;28;19916;-61
2021/09/25 05:53:08;;;;;;;;;;;16.60;99.60;;;;;;5024837;28;19952;-62
2021/09/25 05:55:34;;;;;;;;;;;16.60;99.50;;;;;;5023456;28;20391;-61
2021/09/25 05:58:02;;;;;;;;;;;16.60;99.50;;;;;;5026027;28;19909;-61
2021/09/25 06:00:28;;;;;;;;;;;16.60;99.50;;;;;;5031450;28;20394;-62
2021/09/25 06:02:54;;;;;;;;;;;16.70;99.50;;;;;;5025139;28;19920;-62
2021/09/25 06:05:19;;;;;;;;;;;16.70;99.40;;;;;;5008571;28;20316;-61
2021/09/25 06:07:45;;;;;;;;;;;16.70;99.40;;;;;;5019393;28;19915;-64
2021/09/25 06:10:10;;;;;;;;;;;16.70;99.40;;;;;;5027191;28;19983;-64
2021/09/25 06:12:36;;;;;;;;;;;16.70;99.40;;;;;;5025761;28;20004;-64
2021/09/25 06:15:02;;;;;;;;;;;16.70;99.40;;;;;;5026536;28;20263;-62
2021/09/25 06:17:28;;;;;;;;;;;16.70;99.40;;;;;;5025702;28;19963;-62
2021/09/25 06:22:25;;;;;;;;;;;16.70;99.30;;;;;;5047748;22;19975;-70
2021/09/25 06:24:51;;;;;;;;;;;16.70;99.30;;;;;;5018351;28;19909;-70
2021/09/25 06:27:16;;;;;;;;;;;16.70;99.30;;;;;;5028186;28;19916;-70
2021/09/25 06:29:41;;;;;;;;;;;16.80;99.30;;;;;;5026992;28;20107;-70
2021/09/25 06:32:07;;;;;;;;;;;16.80;99.30;;;;;;5027343;28;20000;-71
2021/09/25 06:34:32;;;;;;;;;;;16.70;99.20;;;;;;5027885;28;19951;-70
2021/09/25 06:36:58;;;;;;;;;;;16.80;99.30;;;;;;5028258;28;20277;-70
2021/09/25 06:39:23;;;;;;;;;;;16.80;99.20;;;;;;5027014;28;19919;-70
2021/09/25 06:41:49;;;;;;;;;;;16.80;99.20;;;;;;5027591;28;19951;-70
2021/09/25 06:44:14;;;;;;;;;;;16.80;99.20;;;;;;5028079;28;19905;-70
2021/09/25 06:46:40;;;;;;;;;;;16.80;99.20;;;;;;5027747;28;20004;-70
2021/09/25 06:49:05;;;;;;;;;;;16.80;99.10;;;;;;5027817;28;19975;-70
2021/09/25 06:51:31;;;;;;;;;;;16.90;99.10;;;;;;5027066;28;20426;-70
2021/09/25 06:53:56;;;;;;;;;;;16.80;99.10;;;;;;5027028;28;19913;-70
2021/09/25 06:56:23;;;;;;;;;;;16.90;99.10;;;;;;5027726;28;20003;-70
2021/09/25 06:58:48;;;;;;;;;;;16.90;99.10;;;;;;5027511;28;19924;-71
2021/09/25 07:01:14;;;;;;;;;;;16.90;99.00;;;;;;5026704;28;19913;-71
2021/09/25 07:03:39;;;;;;;;;;;17.00;99.00;;;;;;5034884;28;19908;-71
2021/09/25 07:06:05;;;;;;;;;;;16.90;98.90;;;;;;5028085;28;19999;-71
2021/09/25 07:08:30;;;;;;;;;;;17.00;98.90;;;;;;5027376;28;19992;-70
2021/09/25 07:10:56;;;;;;;;;;;17.00;98.80;;;;;;5026442;28;19909;-70
2021/09/25 07:13:21;;;;;;;;;;;17.00;98.70;;;;;;5027905;28;19970;-71
2021/09/25 07:15:47;;;;;;;;;;;17.10;98.90;;;;;;5027339;28;19925;-70
2021/09/25 07:18:12;;;;;;;;;;;17.10;98.70;;;;;;5027340;28;19924;-70
2021/09/25 07:20:38;;;;;;;;;;;17.20;98.70;;;;;;5027101;28;19913;-71
2021/09/25 07:23:04;;;;;;;;;;;17.20;98.60;;;;;;5026732;28;19951;-71
2021/09/25 07:25:30;;;;;;;;;;;17.20;98.70;;;;;;5027050;28;19912;-71
2021/09/25 07:27:55;;;;;;;;;;;17.20;98.50;;;;;;5027452;28;19909;-70
2021/09/25 07:30:22;;;;;;;;;;;17.30;98.50;;;;;;5026649;28;19955;-70
2021/09/25 07:32:48;;;;;;;;;;;17.30;98.40;;;;;;5026662;28;19923;-71
2021/09/25 07:35:14;;;;;;;;;;;17.30;98.30;;;;;;5026505;28;19908;-71
2021/09/25 07:37:40;;;;;;;;;;;17.30;98.30;;;;;;5026865;28;19905;-71
2021/09/25 07:40:07;;;;;;;;;;;17.40;98.30;;;;;;5028805;28;19981;-71
2021/09/25 07:42:32;;;;;;;;;;;17.40;98.20;;;;;;5030290;28;19917;-71
2021/09/25 07:44:58;;;;;;;;;;;17.30;98.20;;;;;;5038968;28;19913;-70
2021/09/25 07:47:23;;;;;;;;;;;17.30;98.10;;;;;;5031079;28;20366;-71
2021/09/25 07:49:49;;;;;;;;;;;17.30;98.20;;;;;;5030523;28;20365;-71
2021/09/25 07:52:14;;;;;;;;;;;17.30;98.20;;;;;;5030013;28;19909;-71
2021/09/25 07:54:40;;;;;;;;;;;17.40;98.10;;;;;;5030593;28;20361;-71
2021/09/25 07:57:05;;;;;;;;;;;17.30;98.10;;;;;;5031143;28;20000;-71
2021/09/25 07:59:31;;;;;;;;;;;17.40;98.00;;;;;;5029869;28;19927;-70
2021/09/25 08:01:56;;;;;;;;;;;17.40;97.90;;;;;;5029400;28;19920;-71
2021/09/25 08:04:22;;;;;;;;;;;17.40;97.90;;;;;;5030734;28;19905;-70
2021/09/25 08:06:47;;;;;;;;;;;17.50;97.90;;;;;;5031021;28;19944;-71
2021/09/25 08:09:13;;;;;;;;;;;17.50;97.70;;;;;;5030117;28;20007;-71
2021/09/25 08:11:38;;;;;;;;;;;17.50;97.50;;;;;;5020543;28;19916;-71
2021/09/25 08:14:04;;;;;;;;;;;17.50;97.60;;;;;;5030010;28;19913;-71
2021/09/25 08:16:29;;;;;;;;;;;17.50;97.40;;;;;;5030182;28;19936;-70
2021/09/25 08:18:56;;;;;;;;;;;17.50;97.50;;;;;;5030425;28;20326;-71
2021/09/25 08:21:22;;;;;;;;;;;17.60;97.50;;;;;;5028619;28;19924;-70
2021/09/25 08:23:48;;;;;;;;;;;17.60;97.40;;;;;;5029894;28;19963;-71
2021/09/25 08:26:14;;;;;;;;;;;17.70;97.40;;;;;;5029062;28;19905;-71
2021/09/25 08:28:39;;;;;;;;;;;17.70;97.30;;;;;;5029539;28;19909;-71
2021/09/25 08:31:05;;;;;;;;;;;17.70;97.20;;;;;;5029638;28;19971;-71
2021/09/25 08:33:30;;;;;;;;;;;17.70;97.00;;;;;;5030461;28;19909;-71
2021/09/25 08:35:56;;;;;;;;;;;17.80;97.20;;;;;;5030422;28;19973;-71
2021/09/25 08:38:22;;;;;;;;;;;17.80;97.00;;;;;;5030141;28;19952;-71
2021/09/25 08:40:47;;;;;;;;;;;17.80;97.10;;;;;;5028014;28;20003;-71
2021/09/25 08:43:13;;;;;;;;;;;17.90;97.00;;;;;;5029572;28;19991;-70
2021/09/25 08:45:39;;;;;;;;;;;17.90;96.90;;;;;;5028808;28;19909;-71
2021/09/25 08:48:04;;;;;;;;;;;17.90;96.80;;;;;;5029859;28;20378;-70
2021/09/25 08:50:30;;;;;;;;;;;18.00;96.90;;;;;;5029728;28;19912;-71
2021/09/25 08:52:55;;;;;;;;;;;18.10;96.60;;;;;;5027872;28;19920;-71
2021/09/25 08:55:21;;;;;;;;;;;18.10;96.50;;;;;;5030110;28;19920;-71
2021/09/25 08:57:47;;;;;;;;;;;18.20;96.40;;;;;;5028847;28;19909;-70
2021/09/25 09:00:24;;;;;;;;;;;18.20;96.10;;;;;;5029414;28;19916;-71
2021/09/25 09:02:50;;;;;;;;;;;18.30;96.20;;;;;;5029439;28;19913;-71
2021/09/25 09:05:32;;;;;;;;;;;18.40;96.20;;;;;;5029614;28;19916;-71
2021/09/25 09:08:00;;;;;;;;;;;18.40;96.10;;;;;;5029521;28;19909;-71
2021/09/25 09:10:31;;;;;;;;;;;18.40;95.80;;;;;;5029184;28;19936;-71
2021/09/25 09:12:57;;;;;;;;;;;18.50;95.70;;;;;;5028736;28;19911;-71
2021/09/25 09:15:29;;;;;;;;;;;18.50;95.70;;;;;;5029591;28;19920;-71
2021/09/25 09:17:54;;;;;;;;;;;18.50;95.70;;;;;;5028943;28;19909;-71
2021/09/25 09:20:20;;;;;;;;;;;18.50;95.70;;;;;;5029442;28;19967;-71
2021/09/25 09:22:45;;;;;;;;;;;18.60;95.70;;;;;;5027528;28;19923;-72
2021/09/25 09:25:11;;;;;;;;;;;18.60;95.70;;;;;;5020500;28;19954;-71
2021/09/25 09:27:43;;;;;;;;;;;18.70;95.70;;;;;;5028677;28;19919;-72
2021/09/25 09:30:09;;;;;;;;;;;18.80;95.70;;;;;;5028989;28;19913;-72
2021/09/25 09:32:39;;;;;;;;;;;18.90;95.50;;;;;;5028300;28;20036;-72
2021/09/25 09:35:09;;;;;;;;;;;19.00;95.50;;;;;;5027436;28;19909;-73
2021/09/25 09:37:34;;;;;;;;;;;19.20;95.50;;;;;;5029065;28;20388;-73
2021/09/25 09:40:00;;;;;;;;;;;19.30;95.00;;;;;;5028790;28;19916;-72
2021/09/25 09:42:30;;;;;;;;;;;19.40;94.90;;;;;;5028135;28;19916;-72
2021/09/25 09:44:56;;;;;;;;;;;19.50;94.80;;;;;;5029204;28;19909;-72
2021/09/25 09:47:21;;;;;;;;;;;19.70;94.60;;;;;;5028849;28;19905;-73
2021/09/25 09:49:51;;;;;;;;;;;19.80;94.40;;;;;;5028580;28;19916;-72
2021/09/25 09:52:17;;;;;;;;;;;19.90;94.00;;;;;;5027540;28;20278;-72
2021/09/25 09:54:45;;;;;;;;;;;20.10;94.00;;;;;;5028564;28;19916;-73
2021/09/25 09:57:11;;;;;;;;;;;20.20;93.90;;;;;;5028273;28;19955;-73
2021/09/25 09:59:37;;;;;;;;;;;20.20;93.40;;;;;;5028414;28;19917;-72
2021/09/25 10:02:04;;;;;;;;;;;20.30;93.70;;;;;;5028122;28;19909;-72
2021/09/25 10:04:29;;;;;;;;;;;20.40;93.70;;;;;;5028606;28;19905;-72
2021/09/25 10:06:55;;;;;;;;;;;20.50;93.60;;;;;;5028771;28;19909;-73
2021/09/25 10:09:22;;;;;;;;;;;20.50;93.20;;;;;;5028087;28;19905;-72
2021/09/25 10:11:49;;;;;;;;;;;20.60;92.90;;;;;;5027351;28;19915;-73
2021/09/25 10:14:16;;;;;;;;;;;20.60;93.10;;;;;;5027249;28;19911;-73
2021/09/25 10:16:42;;;;;;;;;;;20.60;92.80;;;;;;5028414;28;19967;-72
2021/09/25 10:19:07;;;;;;;;;;;20.60;92.90;;;;;;5028229;28;19913;-73
2021/09/25 10:21:35;;;;;;;;;;;20.70;93.10;;;;;;5027280;28;19991;-72
2021/09/25 10:24:04;;;;;;;;;;;20.80;93.00;;;;;;5028255;28;20249;-72
2021/09/25 10:26:29;;;;;;;;;;;20.90;92.80;;;;;;5027664;28;20288;-72
2021/09/25 10:28:56;;;;;;;;;;;21.10;92.80;;;;;;5027940;28;19905;-72
2021/09/25 10:31:22;;;;;;;;;;;21.10;92.50;;;;;;5018328;28;20282;-72
2021/09/25 10:34:06;;;;;;;;;;;21.10;92.40;;;;;;5028208;28;19916;-72
2021/09/25 10:36:36;;;;;;;;;;;21.10;92.20;;;;;;5027920;28;19905;-72
2021/09/25 10:39:14;;;;;;;;;;;21.10;92.20;;;;;;5027398;28;19974;-72
2021/09/25 10:41:43;;;;;;;;;;;21.10;92.30;;;;;;5027093;28;20432;-72
2021/09/25 10:44:22;;;;;;;;;;;21.10;92.10;;;;;;5027968;28;20334;-72
2021/09/25 10:46:48;;;;;;;;;;;21.10;92.10;;;;;;5027799;28;19922;-72
2021/09/25 10:49:13;;;;;;;;;;;21.10;92.00;;;;;;5027934;28;19905;-72
2021/09/25 10:51:40;;;;;;;;;;;21.10;92.10;;;;;;5026280;28;19919;-72
2021/09/25 10:54:06;;;;;;;;;;;21.00;92.30;;;;;;5027337;28;20417;-73
2021/09/25 10:56:31;;;;;;;;;;;21.10;92.30;;;;;;5027831;28;19996;-73
2021/09/25 10:59:06;;;;;;;;;;;21.10;92.10;;;;;;5018238;28;19917;-73
2021/09/25 11:01:33;;;;;;;;;;;21.20;92.10;;;;;;5027494;28;19923;-72
2021/09/25 11:04:01;;;;;;;;;;;21.40;91.90;;;;;;5027998;28;19916;-73
2021/09/25 11:06:36;;;;;;;;;;;21.40;91.80;;;;;;5028172;28;19905;-73
2021/09/25 11:09:05;;;;;;;;;;;21.50;91.80;;;;;;5027432;28;19924;-73
2021/09/25 11:11:45;;;;;;;;;;;21.60;91.60;;;;;;5026771;28;19952;-73
2021/09/25 11:14:15;;;;;;;;;;;21.60;91.20;;;;;;5017620;28;20781;-72
2021/09/25 11:16:52;;;;;;;;;;;21.50;91.50;;;;;;5031701;28;19909;-73
2021/09/25 11:19:20;;;;;;;;;;;21.60;91.30;;;;;;5031292;28;19913;-72
2021/09/25 11:21:45;;;;;;;;;;;21.60;91.50;;;;;;5030736;28;20066;-72
2021/09/25 11:24:11;;;;;;;;;;;21.70;91.20;;;;;;5030982;28;20028;-72
2021/09/25 11:26:38;;;;;;;;;;;21.70;91.00;;;;;;5031643;28;20043;-73
2021/09/25 11:29:10;;;;;;;;;;;21.80;91.00;;;;;;5029956;28;20353;-72
2021/09/25 11:31:36;;;;;;;;;;;21.90;90.90;;;;;;5031007;28;19913;-72
2021/09/25 11:34:02;;;;;;;;;;;21.90;91.00;;;;;;5037955;28;19916;-72
2021/09/25 11:36:28;;;;;;;;;;;21.90;90.90;;;;;;5031609;28;19952;-72
2021/09/25 11:38:53;;;;;;;;;;;22.00;90.90;;;;;;5029145;28;20608;-72
2021/09/25 11:41:19;;;;;;;;;;;22.00;90.90;;;;;;5030669;28;19909;-73
2021/09/25 11:43:55;;;;;;;;;;;22.10;91.00;;;;;;5030535;28;19909;-72
2021/09/25 11:46:21;;;;;;;;;;;22.10;90.60;;;;;;5031339;28;19905;-73
2021/09/25 11:48:47;;;;;;;;;;;22.20;90.40;;;;;;5030769;28;19962;-72
2021/09/25 11:51:12;;;;;;;;;;;22.20;90.20;;;;;;5030274;28;19913;-72
2021/09/25 11:53:43;;;;;;;;;;;22.20;90.50;;;;;;5029713;28;19909;-72
2021/09/25 11:56:08;;;;;;;;;;;22.20;90.60;;;;;;5030629;28;19916;-73
2021/09/25 11:58:34;;;;;;;;;;;22.30;90.50;;;;;;5030523;28;20329;-72
2021/09/25 12:01:00;;;;;;;;;;;22.30;90.50;;;;;;5029604;28;19909;-72
2021/09/25 12:03:28;;;;;;;;;;;22.30;90.30;;;;;;5030595;28;20265;-72
2021/09/25 12:05:54;;;;;;;;;;;22.30;90.20;;;;;;5030458;28;20581;-73
2021/09/25 12:08:22;;;;;;;;;;;22.30;90.40;;;;;;5029653;28;19939;-71
2021/09/25 12:10:48;;;;;;;;;;;22.30;90.00;;;;;;5029313;28;19955;-72
2021/09/25 12:13:24;;;;;;;;;;;22.30;90.00;;;;;;5030048;28;19944;-71
2021/09/25 12:15:50;;;;;;;;;;;22.30;90.10;;;;;;5029813;28;20018;-71
2021/09/25 12:18:18;;;;;;;;;;;22.30;90.20;;;;;;5029813;28;19916;-72
2021/09/25 12:20:45;;;;;;;;;;;22.40;90.10;;;;;;5029424;28;19909;-72
2021/09/25 12:23:10;;;;;;;;;;;22.50;90.00;;;;;;5042873;22;19957;-69
2021/09/25 12:25:40;;;;;;;;;;;22.50;89.80;;;;;;5030204;28;19952;-69
2021/09/25 12:28:24;;;;;;;;;;;22.50;89.70;;;;;;5030429;28;19909;-69
2021/09/25 12:30:50;;;;;;;;;;;22.40;89.90;;;;;;5028404;28;19909;-70
2021/09/25 12:33:21;;;;;;;;;;;22.50;89.20;;;;;;5028734;28;19939;-70
2021/09/25 12:35:53;;;;;;;;;;;22.40;88.90;;;;;;5030041;28;20024;-70
2021/09/25 12:38:19;;;;;;;;;;;22.30;89.00;;;;;;5028554;28;19920;-69
2021/09/25 12:40:45;;;;;;;;;;;22.30;89.70;;;;;;5029348;28;20261;-69
2021/09/25 12:43:10;;;;;;;;;;;22.20;89.90;;;;;;5028322;28;19916;-69
2021/09/25 12:45:36;;;;;;;;;;;22.10;89.90;;;;;;5028727;28;19905;-69
2021/09/25 12:48:16;;;;;;;;;;;22.20;90.00;;;;;;5030425;28;19905;-69
2021/09/25 12:50:48;;;;;;;;;;;22.20;90.10;;;;;;5029686;28;19968;-69
2021/09/25 12:53:16;;;;;;;;;;;22.10;89.90;;;;;;5028893;28;20332;-70
2021/09/25 12:55:42;;;;;;;;;;;22.10;89.90;;;;;;5029323;28;20305;-69
2021/09/25 12:58:07;;;;;;;;;;;22.10;89.70;;;;;;5029445;28;19920;-69
2021/09/25 13:00:32;;;;;;;;;;;22.00;89.90;;;;;;5029334;28;19905;-69
2021/09/25 13:02:58;;;;;;;;;;;21.90;89.50;;;;;;5027030;28;19909;-69
2021/09/25 13:05:25;;;;;;;;;;;21.90;89.70;;;;;;5029381;28;19909;-70
2021/09/25 13:07:51;;;;;;;;;;;21.80;90.00;;;;;;5028357;28;19916;-69
2021/09/25 13:10:20;;;;;;;;;;;21.80;90.00;;;;;;5029447;28;19913;-69
2021/09/25 13:12:46;;;;;;;;;;;21.90;90.00;;;;;;5028498;28;19913;-69
2021/09/25 13:15:13;;;;;;;;;;;22.00;90.00;;;;;;5044517;28;19912;-69
2021/09/25 13:17:43;;;;;;;;;;;21.90;90.10;;;;;;5029530;28;20297;-69
2021/09/25 13:20:10;;;;;;;;;;;21.90;90.00;;;;;;5028563;28;20410;-69
2021/09/25 13:22:36;;;;;;;;;;;21.90;90.10;;;;;;5027997;28;20444;-70
2021/09/25 13:25:02;;;;;;;;;;;22.00;90.10;;;;;;5029260;28;19911;-69
2021/09/25 13:27:29;;;;;;;;;;;22.00;89.70;;;;;;5027856;28;19905;-69
2021/09/25 13:29:54;;;;;;;;;;;22.00;90.10;;;;;;5028906;28;20020;-69
2021/09/25 13:32:21;;;;;;;;;;;22.00;89.70;;;;;;5028050;28;20409;-69
2021/09/25 13:34:46;;;;;;;;;;;22.00;89.60;;;;;;5028868;28;19905;-69
2021/09/25 13:37:11;;;;;;;;;;;21.90;89.90;;;;;;5028040;28;20051;-70
2021/09/25 13:39:37;;;;;;;;;;;21.90;90.00;;;;;;5028134;28;19909;-70
2021/09/25 13:42:03;;;;;;;;;;;21.90;90.10;;;;;;5028403;28;20396;-70
2021/09/25 13:44:28;;;;;;;;;;;21.90;90.10;;;;;;5043959;28;19912;-70
2021/09/25 13:46:54;;;;;;;;;;;21.90;90.10;;;;;;5029115;28;19905;-69
2021/09/25 13:49:19;;;;;;;;;;;21.90;90.20;;;;;;5028106;28;19909;-69
2021/09/25 13:51:45;;;;;;;;;;;21.90;90.30;;;;;;5026914;28;19952;-69
2021/09/25 13:54:11;;;;;;;;;;;22.00;90.20;;;;;;5028131;28;19974;-70
2021/09/25 13:56:36;;;;;;;;;;;22.00;90.30;;;;;;5028202;28;19909;-70
2021/09/25 13:59:01;;;;;;;;;;;22.10;90.40;;;;;;5028157;28;19978;-70
2021/09/25 14:01:27;;;;;;;;;;;22.10;90.20;;;;;;5027688;28;19909;-69
2021/09/25 14:03:53;;;;;;;;;;;22.10;90.20;;;;;;5028056;28;19999;-70
2021/09/25 14:06:19;;;;;;;;;;;22.20;90.20;;;;;;5027612;28;19909;-70
2021/09/25 14:08:45;;;;;;;;;;;22.20;90.20;;;;;;5027668;28;19909;-70
2021/09/25 14:11:10;;;;;;;;;;;22.30;90.30;;;;;;5043161;28;19929;-70
2021/09/25 14:13:39;;;;;;;;;;;22.40;90.20;;;;;;5028210;28;19905;-70